Time;durP1;ratioP1;P1;durP2;ratioP2;P2;SDS_P1;SDS_P2;PMS_P1;PMS_P2;Temp;Humidity;BMP_temperature;BMP_pressure;BME280_temperature;BME280_humidity;BME280_pressure;Samples;Min_cycle;Max_cycle;Signal;HPM_P1;HPM_P2
2022/09/21 00:03:52;;;;;;;1.13;1.00;;;11.90;72.70;11.70;97134.00;;;;5097991;28;20171;-81
2022/09/21 00:06:21;;;;;;;1.20;1.10;;;11.80;72.60;11.70;97139.00;;;;5098399;28;20206;-81
2022/09/21 00:08:50;;;;;;;1.17;1.10;;;11.80;72.60;11.70;97133.00;;;;5098965;28;20223;-81
2022/09/21 00:11:20;;;;;;;1.07;1.03;;;11.80;72.60;11.70;97135.00;;;;5096881;28;20679;-81
2022/09/21 00:13:47;;;;;;;1.33;1.23;;;11.70;72.40;11.70;97136.00;;;;5097851;28;20258;-81
2022/09/21 00:16:16;;;;;;;7.67;1.43;;;11.80;72.50;11.70;97129.00;;;;5096687;28;20202;-81
2022/09/21 00:18:43;;;;;;;1.37;0.97;;;11.70;72.50;11.60;97136.00;;;;5096909;28;20697;-81
2022/09/21 00:21:15;;;;;;;1.80;1.10;;;11.70;72.60;11.60;97139.00;;;;5098017;28;20254;-81
2022/09/21 00:23:44;;;;;;;2.07;1.10;;;11.70;72.60;11.60;97132.00;;;;5098047;28;20206;-81
2022/09/21 00:26:16;;;;;;;1.87;1.43;;;11.60;72.50;11.50;97133.00;;;;5098277;28;20227;-81
2022/09/21 00:28:43;;;;;;;2.13;1.23;;;11.60;72.70;11.50;97138.00;;;;5096576;28;20628;-81
2022/09/21 00:31:14;;;;;;;1.23;1.23;;;11.60;72.70;11.50;97140.00;;;;5091129;28;20208;-81
2022/09/21 00:33:43;;;;;;;1.10;1.10;;;11.60;72.50;11.50;97137.00;;;;5075491;28;20299;-81
2022/09/21 00:36:15;;;;;;;1.40;1.30;;;11.60;72.50;11.40;97135.00;;;;5077394;28;20224;-81
2022/09/21 00:38:43;;;;;;;1.47;1.23;;;11.50;72.30;11.40;97139.00;;;;5077769;28;20614;-81
2022/09/21 00:41:12;;;;;;;1.20;1.10;;;11.50;72.50;11.40;97140.00;;;;5077242;28;20251;-81
2022/09/21 00:43:46;;;;;;;1.27;1.27;;;11.50;72.60;11.40;97143.00;;;;5077818;28;20238;-81
2022/09/21 00:46:25;;;;;;;1.30;1.20;;;11.50;72.50;11.40;97150.00;;;;5076700;28;20203;-82
2022/09/21 00:48:52;;;;;;;1.10;1.10;;;11.50;72.40;11.40;97135.00;;;;5077481;28;20665;-81
2022/09/21 00:51:21;;;;;;;1.20;1.10;;;11.40;72.30;11.30;97137.00;;;;5075001;28;20316;-82
2022/09/21 00:53:53;;;;;;;1.10;1.10;;;11.40;72.30;11.30;97138.00;;;;5076133;28;20635;-80
2022/09/21 00:56:20;;;;;;;1.47;1.20;;;11.30;72.40;11.30;97130.00;;;;5075310;28;20204;-81
2022/09/21 00:58:53;;;;;;;1.83;1.20;;;11.30;72.40;11.30;97136.00;;;;5075983;28;20231;-80
2022/09/21 01:01:21;;;;;;;1.00;1.00;;;11.30;72.40;11.20;97135.00;;;;5075121;28;20234;-81
2022/09/21 01:03:50;;;;;;;1.47;1.10;;;11.30;72.30;11.20;97142.00;;;;5076164;28;20609;-81
2022/09/21 01:06:21;;;;;;;1.30;1.03;;;11.30;72.20;11.20;97133.00;;;;5075186;28;20227;-80
2022/09/21 01:08:52;;;;;;;1.33;1.10;;;11.30;72.20;11.20;97137.00;;;;5074922;28;20230;-79
2022/09/21 01:11:38;;;;;;;1.20;1.10;;;11.20;72.00;11.10;97135.00;;;;5071601;28;20230;-78
2022/09/21 01:14:33;;;;;;;1.10;1.00;;;11.20;72.00;11.10;97131.00;;;;5069809;28;20215;-79
2022/09/21 01:17:13;;;;;;;1.57;1.03;;;11.20;72.00;11.10;97135.00;;;;5070414;28;20180;-79
2022/09/21 01:20:14;;;;;;;1.00;1.00;;;11.20;72.90;11.00;97136.00;;;;5067241;28;20625;-79
2022/09/21 01:23:05;;;;;;;1.17;1.07;;;11.10;72.20;11.00;97134.00;;;;5071619;28;20231;-78
2022/09/21 01:25:48;;;;;;;2.43;1.17;;;11.10;72.10;11.00;97147.00;;;;5070663;28;20196;-79
2022/09/21 01:28:34;;;;;;;1.83;1.03;;;11.10;72.10;10.90;97137.00;;;;5071612;28;20225;-80
2022/09/21 01:31:10;;;;;;;1.47;0.90;;;11.00;72.10;10.90;97137.00;;;;5093815;22;20860;-87
2022/09/21 01:33:48;;;;;;;1.50;1.10;;;11.00;72.30;10.90;97137.00;;;;5072456;28;20213;-87
2022/09/21 01:36:23;;;;;;;1.10;1.00;;;11.00;72.50;10.90;97129.00;;;;5055977;28;20307;-87
2022/09/21 01:38:55;;;;;;;1.10;1.00;;;10.90;72.40;10.90;97133.00;;;;5052852;28;20198;-87
2022/09/21 01:41:27;;;;;;;1.10;1.10;;;10.90;72.50;10.90;97140.00;;;;5052552;28;20280;-87
2022/09/21 01:44:00;;;;;;;1.53;1.13;;;10.90;72.50;10.80;97132.00;;;;5052516;28;20184;-87
2022/09/21 01:46:32;;;;;;;1.27;0.90;;;10.90;72.50;10.80;97139.00;;;;5073057;28;20315;-87
2022/09/21 01:49:07;;;;;;;1.20;1.10;;;10.90;72.40;10.80;97140.00;;;;5072541;28;20274;-87
2022/09/21 01:51:40;;;;;;;1.10;1.10;;;10.80;73.20;10.80;97136.00;;;;5072613;28;20193;-87
2022/09/21 01:54:14;;;;;;;1.10;1.00;;;10.80;72.40;10.70;97136.00;;;;5072410;28;20188;-87
2022/09/21 01:56:50;;;;;;;1.30;1.20;;;10.80;72.30;10.70;97132.00;;;;5072814;28;20180;-86
2022/09/21 01:59:31;;;;;;;1.30;1.20;;;10.70;72.20;10.70;97136.00;;;;5072354;28;20200;-86
2022/09/21 02:02:06;;;;;;;1.13;1.00;;;10.80;72.30;10.70;97139.00;;;;5059247;28;20204;-86
2022/09/21 02:04:35;;;;;;;1.07;1.07;;;10.70;72.30;10.70;97142.00;;;;5051278;28;20232;-85
2022/09/21 02:07:02;;;;;;;1.53;1.20;;;10.80;72.40;10.60;97138.00;;;;5052387;28;20243;-85
2022/09/21 02:09:30;;;;;;;1.30;1.20;;;10.70;72.30;10.60;97137.00;;;;5052372;28;20200;-85
2022/09/21 02:11:57;;;;;;;1.33;1.23;;;10.70;72.20;10.60;97127.00;;;;5052053;28;20655;-86
2022/09/21 02:14:26;;;;;;;1.37;1.27;;;10.60;72.10;10.50;97128.00;;;;5055967;28;20206;-86
2022/09/21 02:17:06;;;;;;;1.53;1.20;;;10.60;72.20;10.50;97135.00;;;;5072348;28;20192;-86
2022/09/21 02:19:45;;;;;;;0.97;0.97;;;10.60;72.20;10.50;97141.00;;;;5072424;28;20196;-86
2022/09/21 02:22:18;;;;;;;1.00;0.90;;;10.60;72.30;10.50;97134.00;;;;5056980;28;20283;-85
2022/09/21 02:24:49;;;;;;;1.37;1.17;;;10.60;72.50;10.50;97135.00;;;;5051874;28;20251;-86
2022/09/21 02:27:32;;;;;;;1.47;1.37;;;10.50;72.60;10.50;97132.00;;;;5052342;28;20292;-86
2022/09/21 02:30:07;;;;;;;1.27;1.17;;;10.60;72.90;10.50;97134.00;;;;5052953;28;20242;-86
2022/09/21 02:32:49;;;;;;;1.03;1.00;;;10.50;72.90;10.50;97137.00;;;;5055520;28;20235;-86
2022/09/21 02:35:29;;;;;;;1.57;1.10;;;10.50;73.20;10.50;97127.00;;;;5055477;28;20702;-86
2022/09/21 02:38:09;;;;;;;1.23;1.20;;;10.60;73.40;10.50;97133.00;;;;5072999;28;20192;-86
2022/09/21 02:40:43;;;;;;;1.67;1.30;;;10.60;73.60;10.60;97138.00;;;;5074624;28;20176;-86
2022/09/21 02:43:21;;;;;;;1.87;1.40;;;10.60;73.50;10.50;97137.00;;;;5055633;28;20204;-86
2022/09/21 02:45:54;;;;;;;1.00;1.00;;;10.60;73.20;10.50;97137.00;;;;5055620;28;20750;-86
2022/09/21 02:48:31;;;;;;;2.13;1.40;;;10.60;73.30;10.50;97138.00;;;;5055708;28;20220;-86
2022/09/21 02:51:05;;;;;;;1.57;1.20;;;10.60;73.20;10.50;97132.00;;;;5055605;28;20263;-86
2022/09/21 02:53:38;;;;;;;1.20;1.10;;;10.60;72.90;10.50;97150.00;;;;5055658;28;20205;-86
2022/09/21 02:56:10;;;;;;;1.53;1.10;;;10.60;72.60;10.50;97140.00;;;;5055297;28;20307;-86
2022/09/21 02:58:43;;;;;;;1.33;1.27;;;10.60;72.50;10.40;97145.00;;;;5055600;28;20568;-86
2022/09/21 03:01:14;;;;;;;1.40;1.30;;;10.50;72.30;10.40;97142.00;;;;5055430;28;20287;-86
2022/09/21 03:03:42;;;;;;;2.37;1.27;;;10.50;72.20;10.40;97145.00;;;;5055273;28;20272;-85
2022/09/21 03:06:10;;;;;;;1.40;1.30;;;10.50;72.20;10.30;97137.00;;;;5054914;28;20770;-86
2022/09/21 03:08:38;;;;;;;1.37;0.87;;;10.40;72.00;10.30;97137.00;;;;5055218;28;20243;-86
2022/09/21 03:11:05;;;;;;;2.70;1.20;;;10.40;72.10;10.30;97139.00;;;;5055136;28;20279;-86
2022/09/21 03:13:33;;;;;;;1.03;1.00;;;10.40;72.10;10.20;97137.00;;;;5054958;28;20220;-86
2022/09/21 03:16:02;;;;;;;1.50;1.40;;;10.40;72.10;10.20;97132.00;;;;5055067;28;20221;-86
2022/09/21 03:18:30;;;;;;;1.10;1.00;;;10.30;72.10;10.20;97140.00;;;;5055284;28;20311;-85
2022/09/21 03:21:01;;;;;;;1.60;1.30;;;10.30;72.00;10.20;97133.00;;;;5055162;28;20292;-86
2022/09/21 03:23:28;;;;;;;1.40;1.30;;;10.30;72.00;10.10;97137.00;;;;5055254;28;20195;-86
2022/09/21 03:25:55;;;;;;;1.30;1.20;;;10.20;71.90;10.10;97142.00;;;;5055057;28;20304;-86
2022/09/21 03:28:23;;;;;;;1.30;1.20;;;10.20;71.90;10.10;97137.00;;;;5055174;28;20275;-86
2022/09/21 03:30:51;;;;;;;1.23;1.13;;;10.20;71.80;10.10;97146.00;;;;5055893;28;20291;-86
2022/09/21 03:33:19;;;;;;;1.20;1.10;;;10.20;71.80;10.00;97144.00;;;;5054351;28;20305;-86
2022/09/21 03:35:48;;;;;;;1.20;1.00;;;10.10;71.70;10.00;97140.00;;;;5053898;28;20275;-86
2022/09/21 03:38:16;;;;;;;1.07;1.03;;;10.10;71.80;9.90;97147.00;;;;5054628;28;20272;-85
2022/09/21 03:40:46;;;;;;;1.17;1.07;;;10.10;72.60;9.90;97143.00;;;;5053985;28;20235;-86
2022/09/21 03:43:13;;;;;;;1.20;1.10;;;10.10;72.10;9.90;97143.00;;;;5054381;28;20291;-86
2022/09/21 03:45:41;;;;;;;1.20;1.10;;;10.00;72.30;9.90;97143.00;;;;5068442;28;20299;-86
2022/09/21 03:48:10;;;;;;;1.63;1.53;;;10.00;72.30;9.90;97139.00;;;;5074374;28;20278;-86
2022/09/21 03:50:38;;;;;;;1.17;1.07;;;10.00;72.40;9.90;97136.00;;;;5073764;28;20202;-86
2022/09/21 03:53:05;;;;;;;1.93;1.23;;;10.00;72.50;9.90;97149.00;;;;5054858;28;20208;-86
2022/09/21 03:55:34;;;;;;;1.13;1.10;;;9.90;72.30;9.80;97150.00;;;;5054180;28;20243;-85
2022/09/21 03:58:02;;;;;;;1.30;1.20;;;10.00;72.50;9.80;97144.00;;;;5053921;28;20201;-86
2022/09/21 04:00:30;;;;;;;1.50;1.20;;;9.90;72.50;9.80;97142.00;;;;5056114;28;20688;-86
2022/09/21 04:02:57;;;;;;;1.40;1.30;;;9.90;72.40;9.80;97141.00;;;;5055356;28;20197;-86
2022/09/21 04:05:24;;;;;;;1.40;1.30;;;10.00;72.40;9.70;97139.00;;;;5053863;28;20243;-85
2022/09/21 04:07:52;;;;;;;1.47;1.37;;;9.80;72.20;9.70;97151.00;;;;5054406;28;20286;-86
2022/09/21 04:10:25;;;;;;;1.30;1.20;;;9.80;72.20;9.70;97143.00;;;;5054028;28;20279;-86
2022/09/21 04:12:58;;;;;;;1.10;1.00;;;9.80;72.10;9.70;97148.00;;;;5053951;28;20262;-85
2022/09/21 04:15:25;;;;;;;1.70;1.60;;;9.80;72.10;9.70;97160.00;;;;5053874;28;20213;-85
2022/09/21 04:17:53;;;;;;;1.23;1.13;;;9.80;72.20;9.70;97150.00;;;;5053886;28;20291;-86
2022/09/21 04:20:21;;;;;;;2.50;1.10;;;9.80;72.30;9.60;97151.00;;;;5054284;28;20281;-85
2022/09/21 04:22:48;;;;;;;1.40;1.30;;;9.80;72.90;9.60;97155.00;;;;5054223;28;20636;-85
2022/09/21 04:25:16;;;;;;;1.40;1.30;;;9.70;72.10;9.60;97156.00;;;;5053976;28;20727;-86
2022/09/21 04:27:43;;;;;;;1.33;1.23;;;9.70;72.10;9.60;97151.00;;;;5053743;28;20232;-85
2022/09/21 04:30:15;;;;;;;1.30;1.20;;;9.70;72.20;9.60;97151.00;;;;5053513;28;20235;-85
2022/09/21 04:32:42;;;;;;;1.57;1.47;;;9.70;72.40;9.50;97148.00;;;;5053447;28;20229;-84
2022/09/21 04:35:10;;;;;;;4.03;1.60;;;9.60;72.40;9.50;97161.00;;;;5053100;28;20751;-85
2022/09/21 04:37:37;;;;;;;1.10;1.10;;;9.60;72.30;9.50;97153.00;;;;5053590;28;20200;-85
2022/09/21 04:40:06;;;;;;;1.50;1.40;;;9.60;72.30;9.50;97157.00;;;;5053243;28;20308;-84
2022/09/21 04:42:33;;;;;;;2.00;1.40;;;9.60;72.20;9.50;97152.00;;;;5053712;28;20284;-85
2022/09/21 04:45:01;;;;;;;1.43;1.33;;;9.60;72.10;9.50;97155.00;;;;5062478;28;20656;-85
2022/09/21 04:47:31;;;;;;;1.30;1.20;;;9.60;72.10;9.40;97161.00;;;;5073599;28;20203;-85
2022/09/21 04:49:58;;;;;;;1.63;1.17;;;9.60;72.00;9.40;97162.00;;;;5073417;28;20208;-85
2022/09/21 04:52:25;;;;;;;1.23;1.13;;;9.60;72.00;9.40;97170.00;;;;5072567;28;20282;-85
2022/09/21 04:54:53;;;;;;;2.40;1.50;;;9.50;71.80;9.40;97168.00;;;;5053489;28;20303;-85
2022/09/21 04:57:20;;;;;;;2.47;1.30;;;9.50;71.90;9.30;97172.00;;;;5053118;28;20615;-88
2022/09/21 04:59:47;;;;;;;1.37;1.27;;;9.50;71.90;9.40;97168.00;;;;5053155;28;20239;-87
2022/09/21 05:02:16;;;;;;;2.30;2.10;;;9.50;72.00;9.40;97171.00;;;;5053171;28;20734;-87
2022/09/21 05:04:45;;;;;;;3.30;3.00;;;9.40;72.00;9.40;97175.00;;;;5052981;28;20228;-86
2022/09/21 05:07:12;;;;;;;3.20;2.90;;;9.50;72.30;9.40;97175.00;;;;5053253;28;20200;-87
2022/09/21 05:12:23;;;;;;;2.80;2.33;;;9.40;72.30;9.50;97184.00;;;;5053217;28;20725;-87
2022/09/21 05:14:51;;;;;;;2.60;2.40;;;9.40;72.30;9.50;97185.00;;;;5052243;28;20217;-88
2022/09/21 05:17:21;;;;;;;3.00;2.43;;;9.40;72.40;9.50;97190.00;;;;5051379;28;20296;-87
2022/09/21 05:19:50;;;;;;;1.80;1.70;;;9.40;72.50;9.50;97203.00;;;;5051517;28;20228;-87
2022/09/21 05:22:17;;;;;;;3.10;1.30;;;9.30;72.70;9.50;97198.00;;;;5052449;28;20203;-87
2022/09/21 05:24:45;;;;;;;1.37;1.27;;;9.40;73.00;9.50;97200.00;;;;5052493;28;20213;-88
2022/09/21 05:27:12;;;;;;;1.40;1.30;;;9.50;73.00;9.50;97201.00;;;;5051509;28;20193;-87
2022/09/21 05:29:41;;;;;;;1.60;1.50;;;9.50;73.10;9.60;97202.00;;;;5051231;28;20200;-86
2022/09/21 05:32:20;;;;;;;1.00;1.00;;;9.50;73.10;9.60;97204.00;;;;5053119;28;20204;-87
2022/09/21 05:35:05;;;;;;;1.57;1.40;;;9.50;73.10;9.60;97214.00;;;;5052012;28;20303;-87
2022/09/21 05:37:48;;;;;;;1.93;1.27;;;9.50;73.10;9.60;97213.00;;;;5050889;28;20619;-88
2022/09/21 05:40:16;;;;;;;1.33;1.20;;;9.50;73.00;9.60;97211.00;;;;5034600;28;20268;-87
2022/09/21 05:42:45;;;;;;;1.40;1.30;;;9.50;73.10;9.60;97221.00;;;;5032464;28;20296;-87
2022/09/21 05:45:19;;;;;;;1.30;1.20;;;9.50;73.20;9.60;97214.00;;;;5032500;28;20221;-87
2022/09/21 05:48:03;;;;;;;1.63;1.30;;;9.50;73.10;9.60;97215.00;;;;5032616;28;20271;-87
2022/09/21 05:50:52;;;;;;;1.83;1.53;;;9.60;73.10;9.60;97215.00;;;;5032358;28;20193;-87
2022/09/21 05:53:48;;;;;;;2.17;1.37;;;9.60;73.20;9.60;97215.00;;;;5051139;28;20234;-87
2022/09/21 05:56:35;;;;;;;1.50;1.40;;;9.60;73.40;9.70;97227.00;;;;5052350;28;20655;-87
2022/09/21 05:59:25;;;;;;;1.13;1.13;;;9.60;73.30;9.70;97224.00;;;;5052369;28;20288;-87
2022/09/21 06:02:07;;;;;;;1.37;1.27;;;9.60;73.40;9.70;97223.00;;;;5051926;28;20246;-87
2022/09/21 06:04:35;;;;;;;1.20;1.20;;;9.60;73.50;9.70;97224.00;;;;5051893;28;20230;-87
2022/09/21 06:07:03;;;;;;;1.13;1.03;;;9.60;73.50;9.80;97229.00;;;;5055500;28;20695;-87
2022/09/21 06:09:30;;;;;;;1.40;1.30;;;9.70;73.50;9.80;97230.00;;;;5056308;28;20291;-87
2022/09/21 06:11:58;;;;;;;1.30;1.20;;;9.70;73.60;9.80;97234.00;;;;5055095;28;20351;-87
2022/09/21 06:14:26;;;;;;;1.20;1.10;;;9.70;74.40;9.90;97228.00;;;;5060163;28;20219;-87
2022/09/21 06:16:53;;;;;;;1.43;1.33;;;9.70;73.80;9.90;97226.00;;;;5076141;28;20195;-87
2022/09/21 06:19:20;;;;;;;1.83;1.73;;;9.80;74.10;9.90;97233.00;;;;5060193;28;20232;-87
2022/09/21 06:21:47;;;;;;;1.73;1.63;;;9.70;74.00;10.00;97236.00;;;;5055503;28;20548;-87
2022/09/21 06:24:16;;;;;;;1.70;1.47;;;9.80;74.30;10.00;97237.00;;;;5055411;28;20741;-87
2022/09/21 06:26:43;;;;;;;1.70;1.33;;;9.80;74.50;10.00;97237.00;;;;5055524;28;20287;-87
2022/09/21 06:29:10;;;;;;;1.80;1.70;;;9.90;74.60;10.10;97236.00;;;;5055738;28;20243;-87
2022/09/21 06:31:37;;;;;;;1.70;1.60;;;9.90;74.60;10.10;97237.00;;;;5054199;28;20287;-87
2022/09/21 06:34:04;;;;;;;1.67;1.57;;;9.90;74.70;10.20;97230.00;;;;5059931;28;20793;-87
2022/09/21 06:36:31;;;;;;;2.23;2.03;;;9.90;75.40;10.20;97233.00;;;;5052383;28;20311;-87
2022/09/21 06:38:58;;;;;;;2.17;2.07;;;10.00;74.90;10.30;97236.00;;;;5063067;28;20192;-87
2022/09/21 06:41:27;;;;;;;2.30;2.10;;;10.10;75.20;10.30;97233.00;;;;5055474;28;20284;-87
2022/09/21 06:43:55;;;;;;;2.37;2.00;;;10.10;75.30;10.40;97235.00;;;;5055203;28;20283;-87
2022/09/21 06:46:23;;;;;;;2.10;1.90;;;10.10;75.30;10.40;97240.00;;;;5055107;28;20215;-87
2022/09/21 06:48:50;;;;;;;1.90;1.80;;;10.20;75.50;10.50;97235.00;;;;5055285;28;20281;-88
2022/09/21 06:51:19;;;;;;;1.60;1.50;;;10.30;75.60;10.60;97242.00;;;;5055620;28;20204;-87
2022/09/21 06:53:47;;;;;;;2.03;1.93;;;10.30;75.70;10.60;97245.00;;;;5054959;28;20216;-87
2022/09/21 06:56:14;;;;;;;2.20;2.00;;;10.40;76.00;10.70;97246.00;;;;5055003;28;20223;-87
2022/09/21 06:58:43;;;;;;;2.33;2.10;;;10.50;76.30;10.80;97245.00;;;;5055092;28;20287;-87
2022/09/21 07:01:12;;;;;;;4.97;2.57;;;10.50;76.40;10.80;97243.00;;;;5055239;28;20195;-87
2022/09/21 07:03:41;;;;;;;2.57;2.37;;;10.60;76.60;10.90;97239.00;;;;5054889;28;20228;-87
2022/09/21 07:06:13;;;;;;;2.57;2.47;;;10.60;76.80;11.00;97234.00;;;;5055108;28;20567;-87
2022/09/21 07:08:40;;;;;;;3.27;2.30;;;10.70;76.90;11.10;97240.00;;;;5055392;28;20199;-87
2022/09/21 07:11:07;;;;;;;2.63;2.40;;;10.80;77.00;11.20;97252.00;;;;5054904;28;20279;-87
2022/09/21 07:13:35;;;;;;;2.70;2.50;;;10.90;77.20;11.30;97242.00;;;;5052247;28;20234;-87
2022/09/21 07:16:06;;;;;;;2.80;2.60;;;11.00;77.30;11.30;97241.00;;;;5053271;28;20217;-87
2022/09/21 07:18:34;;;;;;;4.13;2.57;;;11.10;77.70;11.40;97249.00;;;;5054814;28;20288;-87
2022/09/21 07:21:03;;;;;;;2.40;2.20;;;11.10;77.70;11.60;97254.00;;;;5055337;28;20607;-86
2022/09/21 07:23:30;;;;;;;2.30;2.20;;;11.20;78.00;11.70;97247.00;;;;5054264;28;20201;-87
2022/09/21 07:26:03;;;;;;;2.60;2.43;;;11.30;78.10;11.80;97257.00;;;;5054467;28;20306;-87
2022/09/21 07:28:30;;;;;;;2.70;2.50;;;11.40;78.30;11.90;97257.00;;;;5053848;28;20204;-86
2022/09/21 07:30:58;;;;;;;4.57;2.50;;;11.50;78.40;12.10;97263.00;;;;5045932;28;20197;-87
2022/09/21 07:33:26;;;;;;;2.43;2.23;;;11.60;78.60;12.20;97259.00;;;;5052871;28;20192;-87
2022/09/21 07:35:55;;;;;;;2.80;2.60;;;11.80;78.80;12.40;97265.00;;;;5046207;28;20735;-87
2022/09/21 07:38:23;;;;;;;2.50;2.30;;;11.90;78.90;12.50;97270.00;;;;5053477;28;20722;-87
2022/09/21 07:40:50;;;;;;;3.10;2.80;;;12.00;78.90;12.70;97270.00;;;;5052453;28;20576;-87
2022/09/21 07:43:17;;;;;;;2.70;2.40;;;12.10;78.90;12.90;97270.00;;;;5045243;28;20205;-87
2022/09/21 07:45:53;;;;;;;2.20;2.10;;;12.30;79.10;13.00;97277.00;;;;5053324;28;20220;-89
2022/09/21 07:48:21;;;;;;;1.97;1.87;;;12.40;79.40;13.20;97283.00;;;;5054302;28;20196;-88
2022/09/21 07:50:49;;;;;;;1.80;1.60;;;12.60;79.40;13.30;97279.00;;;;5054207;28;20196;-88
2022/09/21 07:53:17;;;;;;;2.07;1.70;;;12.70;79.40;13.50;97281.00;;;;5053419;28;20239;-88
2022/09/21 07:55:45;;;;;;;1.97;1.80;;;12.90;79.40;13.60;97283.00;;;;5053702;28;20240;-88
2022/09/21 08:01:11;;;;;;;118.07;58.17;;;13.10;79.20;14.00;97278.00;;;;5011155;28;20225;-88
2022/09/21 08:03:39;;;;;;;6.00;4.23;;;13.30;78.70;14.10;97274.00;;;;5011596;28;20217;-88
2022/09/21 08:06:09;;;;;;;2.07;1.97;;;13.50;78.60;14.30;97281.00;;;;5029785;28;20216;-88
2022/09/21 08:08:36;;;;;;;1.90;1.80;;;13.60;78.50;14.50;97286.00;;;;5053606;28;20189;-88
2022/09/21 08:11:05;;;;;;;1.53;1.43;;;13.70;78.50;14.60;97282.00;;;;5054079;28;20284;-88
2022/09/21 08:13:32;;;;;;;1.10;1.10;;;13.90;78.50;14.80;97285.00;;;;5052811;28;20564;-88
2022/09/21 08:16:01;;;;;;;1.30;1.20;;;14.00;79.00;14.90;97284.00;;;;5053571;28;20231;-89
2022/09/21 08:18:29;;;;;;;1.83;0.90;;;14.20;78.20;15.00;97292.00;;;;5053929;28;20623;-88
2022/09/21 08:20:58;;;;;;;0.93;0.90;;;14.30;77.80;15.20;97292.00;;;;5064107;28;20192;-88
2022/09/21 08:23:27;;;;;;;0.80;0.80;;;14.50;77.60;15.30;97302.00;;;;5051071;28;20200;-89
2022/09/21 08:26:00;;;;;;;1.07;0.90;;;14.60;77.30;15.40;97300.00;;;;5053299;28;20221;-89
2022/09/21 08:28:27;;;;;;;0.80;0.80;;;14.70;77.00;15.60;97297.00;;;;5052599;28;20204;-88
2022/09/21 08:30:59;;;;;;;0.60;0.60;;;14.80;76.90;15.70;97306.00;;;;5053229;28;20201;-88
2022/09/21 08:33:26;;;;;;;1.17;1.00;;;15.00;76.60;15.80;97302.00;;;;5053266;28;20203;-89
2022/09/21 08:35:55;;;;;;;0.80;0.80;;;15.10;76.30;16.00;97309.00;;;;5053314;28;20223;-89
2022/09/21 08:38:22;;;;;;;1.20;1.07;;;15.20;76.30;16.10;97318.00;;;;5052837;28;20608;-89
2022/09/21 08:40:54;;;;;;;2.10;0.93;;;15.40;76.50;16.20;97314.00;;;;5053046;28;20757;-89
2022/09/21 08:43:31;;;;;;;1.97;1.30;;;15.50;76.20;16.40;97322.00;;;;5053876;28;20193;-89
2022/09/21 08:46:00;;;;;;;1.63;1.00;;;15.60;75.80;16.50;97319.00;;;;5053299;28;20227;-89
2022/09/21 08:48:34;;;;;;;1.30;1.20;;;15.70;75.80;16.60;97320.00;;;;5053314;28;20189;-89
2022/09/21 08:51:06;;;;;;;0.80;0.80;;;15.90;75.80;16.70;97319.00;;;;5053058;28;20650;-89
2022/09/21 08:53:38;;;;;;;1.90;1.00;;;16.00;75.40;16.90;97320.00;;;;5053170;28;20255;-89
2022/09/21 08:56:09;;;;;;;0.67;0.67;;;16.10;75.30;17.00;97320.00;;;;5053151;28;20248;-89
2022/09/21 08:58:39;;;;;;;0.80;0.80;;;16.20;74.70;17.20;97330.00;;;;5052698;28;20281;-89
2022/09/21 09:01:32;;;;;;;1.60;0.73;;;16.40;74.00;17.30;97324.00;;;;5052901;28;20677;-88
2022/09/21 09:04:28;;;;;;;0.60;0.60;;;16.50;72.30;17.40;97323.00;;;;5052691;28;20215;-89
2022/09/21 09:07:18;;;;;;;0.60;0.60;;;16.60;70.80;17.50;97322.00;;;;5052841;28;20556;-89
2022/09/21 09:10:07;;;;;;;1.23;0.47;;;16.80;71.80;17.70;97329.00;;;;5052553;28;20201;-88
2022/09/21 09:12:58;;;;;;;0.70;0.67;;;16.90;71.80;17.80;97327.00;;;;5053000;28;20173;-89
2022/09/21 09:16:03;;;;;;;0.80;0.67;;;17.00;71.20;18.00;97320.00;;;;5051623;28;20251;-88
2022/09/21 09:18:43;;;;;;;0.87;0.77;;;17.20;70.30;18.10;97320.00;;;;5043439;28;20288;-89
2022/09/21 09:21:16;;;;;;;1.03;0.40;;;17.30;71.40;18.20;97312.00;;;;5052731;28;20201;-89
2022/09/21 09:23:50;;;;;;;0.60;0.60;;;17.40;70.70;18.40;97313.00;;;;5052670;28;20207;-89
2022/09/21 09:26:24;;;;;;;0.50;0.40;;;17.50;70.00;18.50;97312.00;;;;5052603;28;20216;-89
2022/09/21 09:28:59;;;;;;;0.60;0.53;;;17.60;69.50;18.60;97309.00;;;;5052434;28;20235;-89
2022/09/21 09:31:33;;;;;;;1.53;0.50;;;17.70;69.90;18.70;97307.00;;;;5051868;28;20200;-88
2022/09/21 09:34:11;;;;;;;0.40;0.40;;;17.80;69.70;18.80;97306.00;;;;5044864;28;20718;-89
2022/09/21 09:36:46;;;;;;;0.20;0.20;;;17.90;69.20;18.90;97300.00;;;;5032164;28;20210;-88
2022/09/21 09:39:16;;;;;;;0.33;0.33;;;18.00;68.30;19.10;97310.00;;;;5032353;28;20208;-88
2022/09/21 09:42:20;;;;;;;0.60;0.60;;;18.20;68.10;19.20;97304.00;;;;5032254;28;20274;-89
2022/09/21 09:45:19;;;;;;;0.60;0.60;;;18.30;67.50;19.30;97309.00;;;;5037290;28;20231;-89
2022/09/21 09:48:19;;;;;;;0.40;0.40;;;18.50;66.40;19.50;97300.00;;;;5051888;28;20325;-88
2022/09/21 09:50:47;;;;;;;1.20;0.77;;;18.70;66.10;19.60;97302.00;;;;5052216;28;20172;-89
2022/09/21 09:53:19;;;;;;;0.70;0.50;;;18.80;65.70;19.70;97299.00;;;;5052181;28;20216;-88
2022/09/21 09:55:49;;;;;;;0.67;0.40;;;18.90;64.10;19.70;97289.00;;;;5053414;28;20220;-88
2022/09/21 09:58:20;;;;;;;0.40;0.40;;;19.00;64.80;19.90;97290.00;;;;5058364;28;20226;-89
2022/09/21 10:00:53;;;;;;;0.40;0.40;;;19.20;65.20;20.00;97295.00;;;;5069291;28;20208;-89
2022/09/21 10:03:24;;;;;;;0.70;0.70;;;19.30;64.60;20.20;97293.00;;;;5049355;28;20723;-88
2022/09/21 10:05:52;;;;;;;0.60;0.50;;;19.40;64.90;20.40;97287.00;;;;5051612;28;20333;-89
2022/09/21 10:08:46;;;;;;;0.60;0.60;;;19.60;64.50;20.50;97278.00;;;;5051945;28;20586;-89
2022/09/21 10:11:16;;;;;;;0.67;0.53;;;19.80;63.70;20.70;97281.00;;;;5016150;28;20231;-89
2022/09/21 10:13:47;;;;;;;0.50;0.43;;;20.00;64.50;20.80;97283.00;;;;5051838;28;20209;-88
2022/09/21 10:16:21;;;;;;;0.43;0.43;;;20.20;63.60;21.00;97279.00;;;;5057479;28;20259;-89
2022/09/21 10:18:55;;;;;;;0.73;0.50;;;20.40;62.00;21.10;97285.00;;;;5072036;28;20207;-88
2022/09/21 10:21:25;;;;;;;1.33;0.90;;;20.50;62.80;21.30;97278.00;;;;5061585;28;20186;-88
2022/09/21 10:23:59;;;;;;;0.73;0.70;;;20.70;62.30;21.40;97284.00;;;;5072294;28;20196;-88
2022/09/21 10:26:34;;;;;;;1.30;0.60;;;20.90;62.00;21.60;97279.00;;;;5071903;28;20244;-88
2022/09/21 10:29:18;;;;;;;0.70;0.60;;;21.10;59.70;21.60;97277.00;;;;5071797;28;20214;-88
2022/09/21 10:31:57;;;;;;;0.53;0.53;;;21.20;60.80;21.70;97272.00;;;;5054596;28;20266;-89
2022/09/21 10:34:26;;;;;;;0.93;0.50;;;21.40;59.00;21.90;97272.00;;;;5051248;28;20199;-89
2022/09/21 10:36:56;;;;;;;0.50;0.50;;;21.50;60.30;22.00;97273.00;;;;5051849;28;20577;-89
2022/09/21 10:39:27;;;;;;;0.47;0.40;;;21.60;59.10;22.00;97270.00;;;;5062669;28;20189;-88
2022/09/21 10:42:01;;;;;;;1.17;0.73;;;21.70;58.70;22.10;97263.00;;;;5051642;28;20322;-88
2022/09/21 10:44:39;;;;;;;0.37;0.37;;;21.80;57.60;22.10;97268.00;;;;5051629;28;20180;-89
2022/09/21 10:47:20;;;;;;;0.80;0.80;;;21.90;56.50;22.10;97271.00;;;;5051551;28;20712;-89
2022/09/21 10:49:51;;;;;;;0.60;0.50;;;21.90;55.90;22.10;97258.00;;;;5051447;28;20203;-89
2022/09/21 10:52:21;;;;;;;1.13;0.50;;;21.90;55.90;22.00;97265.00;;;;5053897;28;20230;-89
2022/09/21 10:54:52;;;;;;;0.53;0.50;;;21.90;56.30;21.90;97265.00;;;;5055461;28;20255;-89
2022/09/21 10:57:23;;;;;;;0.77;0.60;;;21.80;56.40;21.90;97264.00;;;;5055084;28;20284;-89
2022/09/21 10:59:50;;;;;;;0.77;0.50;;;21.70;56.40;21.80;97254.00;;;;5035795;28;20205;-88
2022/09/21 11:02:41;;;;;;;0.60;0.60;;;21.70;55.90;21.70;97260.00;;;;5054067;28;20220;-88
2022/09/21 11:05:17;;;;;;;0.60;0.57;;;21.60;54.30;21.60;97264.00;;;;5049711;28;20254;-88
2022/09/21 11:07:54;;;;;;;0.60;0.60;;;21.50;55.20;21.60;97254.00;;;;5054689;28;20286;-88
2022/09/21 11:10:32;;;;;;;1.20;0.70;;;21.40;54.40;21.50;97255.00;;;;5054618;28;20193;-89
2022/09/21 11:13:25;;;;;;;1.07;0.60;;;21.30;54.10;21.30;97263.00;;;;5035243;28;20202;-89
2022/09/21 11:15:59;;;;;;;1.10;0.63;;;21.20;53.60;21.30;97258.00;;;;5046915;28;20251;-89
2022/09/21 11:18:44;;;;;;;0.40;0.40;;;21.10;55.00;21.20;97260.00;;;;5054631;28;20204;-88
2022/09/21 11:21:20;;;;;;;1.67;0.50;;;21.00;55.10;21.20;97256.00;;;;5054313;28;20200;-89
2022/09/21 11:24:02;;;;;;;0.50;0.40;;;20.90;54.30;21.10;97255.00;;;;5054484;28;20190;-89
2022/09/21 11:26:39;;;;;;;0.73;0.50;;;20.80;54.50;21.00;97256.00;;;;5053345;28;20250;-89
2022/09/21 11:29:15;;;;;;;0.40;0.40;;;20.80;54.70;21.00;97247.00;;;;5055260;28;20196;-89